sensor_id;sensor_type;location;lat;lon;timestamp;temperature;humidity
42615;DHT22;28754;47.700;7.924;2023-05-15T00:01:23;10.10;99.90
42615;DHT22;28754;47.700;7.924;2023-05-15T00:04:10;10.10;99.90
42615;DHT22;28754;47.700;7.924;2023-05-15T00:06:58;10.10;99.90
42615;DHT22;28754;47.700;7.924;2023-05-15T00:09:44;10.10;99.90
42615;DHT22;28754;47.700;7.924;2023-05-15T00:12:31;10.10;99.90
42615;DHT22;28754;47.700;7.924;2023-05-15T00:15:18;9.90;99.90
42615;DHT22;28754;47.700;7.924;2023-05-15T00:18:05;9.80;99.90
42615;DHT22;28754;47.700;7.924;2023-05-15T00:20:51;9.60;99.90
42615;DHT22;28754;47.700;7.924;2023-05-15T00:23:38;9.70;99.90
42615;DHT22;28754;47.700;7.924;2023-05-15T00:26:25;9.60;99.90
42615;DHT22;28754;47.700;7.924;2023-05-15T00:29:11;9.60;99.90
42615;DHT22;28754;47.700;7.924;2023-05-15T00:31:58;9.60;99.90
42615;DHT22;28754;47.700;7.924;2023-05-15T00:34:45;9.60;99.90
42615;DHT22;28754;47.700;7.924;2023-05-15T00:37:32;9.70;99.90
42615;DHT22;28754;47.700;7.924;2023-05-15T00:40:20;9.60;99.90
42615;DHT22;28754;47.700;7.924;2023-05-15T00:43:10;9.60;99.90
42615;DHT22;28754;47.700;7.924;2023-05-15T00:45:58;9.70;99.90
42615;DHT22;28754;47.700;7.924;2023-05-15T00:48:48;9.70;99.90
42615;DHT22;28754;47.700;7.924;2023-05-15T00:51:39;9.60;99.90
42615;DHT22;28754;47.700;7.924;2023-05-15T00:54:27;9.20;99.90
42615;DHT22;28754;47.700;7.924;2023-05-15T00:57:15;8.80;99.90
42615;DHT22;28754;47.700;7.924;2023-05-15T01:00:04;8.80;99.90
42615;DHT22;28754;47.700;7.924;2023-05-15T01:02:56;8.90;99.90
42615;DHT22;28754;47.700;7.924;2023-05-15T01:05:43;9.00;99.90
42615;DHT22;28754;47.700;7.924;2023-05-15T01:08:45;9.10;99.90
42615;DHT22;28754;47.700;7.924;2023-05-15T01:11:34;9.20;99.90
42615;DHT22;28754;47.700;7.924;2023-05-15T01:14:23;9.20;99.90
42615;DHT22;28754;47.700;7.924;2023-05-15T01:17:10;9.20;99.90
42615;DHT22;28754;47.700;7.924;2023-05-15T01:19:57;9.30;99.90
42615;DHT22;28754;47.700;7.924;2023-05-15T01:29:13;9.40;99.90
42615;DHT22;28754;47.700;7.924;2023-05-15T01:35:42;9.10;99.90
42615;DHT22;28754;47.700;7.924;2023-05-15T01:38:38;8.90;99.90
42615;DHT22;28754;47.700;7.924;2023-05-15T01:41:44;9.00;99.90
42615;DHT22;28754;47.700;7.924;2023-05-15T01:44:40;9.10;99.90
42615;DHT22;28754;47.700;7.924;2023-05-15T01:47:40;9.10;99.90
42615;DHT22;28754;47.700;7.924;2023-05-15T01:50:31;9.20;99.90
42615;DHT22;28754;47.700;7.924;2023-05-15T01:53:20;9.20;99.90
42615;DHT22;28754;47.700;7.924;2023-05-15T01:56:08;9.30;99.90
42615;DHT22;28754;47.700;7.924;2023-05-15T01:58:58;9.20;99.90
42615;DHT22;28754;47.700;7.924;2023-05-15T02:01:46;9.20;99.90
42615;DHT22;28754;47.700;7.924;2023-05-15T02:04:37;9.20;99.90
42615;DHT22;28754;47.700;7.924;2023-05-15T02:07:25;9.30;99.90
42615;DHT22;28754;47.700;7.924;2023-05-15T02:10:13;9.30;99.90
42615;DHT22;28754;47.700;7.924;2023-05-15T02:13:08;9.30;99.90
42615;DHT22;28754;47.700;7.924;2023-05-15T02:15:55;9.40;99.90
42615;DHT22;28754;47.700;7.924;2023-05-15T02:18:42;9.40;99.90
42615;DHT22;28754;47.700;7.924;2023-05-15T02:21:28;9.40;99.90
42615;DHT22;28754;47.700;7.924;2023-05-15T02:24:16;9.50;99.90
42615;DHT22;28754;47.700;7.924;2023-05-15T02:27:25;9.60;99.90
42615;DHT22;28754;47.700;7.924;2023-05-15T02:30:22;9.60;99.90
42615;DHT22;28754;47.700;7.924;2023-05-15T02:33:46;9.70;99.90
42615;DHT22;28754;47.700;7.924;2023-05-15T02:36:43;9.50;99.90
42615;DHT22;28754;47.700;7.924;2023-05-15T02:39:36;9.50;99.90
42615;DHT22;28754;47.700;7.924;2023-05-15T02:42:27;9.40;99.90
42615;DHT22;28754;47.700;7.924;2023-05-15T02:45:15;9.30;99.90
42615;DHT22;28754;47.700;7.924;2023-05-15T02:48:03;9.00;99.90
42615;DHT22;28754;47.700;7.924;2023-05-15T02:50:51;8.90;99.90
42615;DHT22;28754;47.700;7.924;2023-05-15T02:53:39;9.00;99.90
42615;DHT22;28754;47.700;7.924;2023-05-15T02:56:26;8.90;99.90
42615;DHT22;28754;47.700;7.924;2023-05-15T02:59:13;9.00;99.90
42615;DHT22;28754;47.700;7.924;2023-05-15T03:02:05;9.10;99.90
42615;DHT22;28754;47.700;7.924;2023-05-15T03:04:51;9.20;99.90
42615;DHT22;28754;47.700;7.924;2023-05-15T03:07:38;9.30;99.90
42615;DHT22;28754;47.700;7.924;2023-05-15T03:10:26;9.30;99.90
42615;DHT22;28754;47.700;7.924;2023-05-15T03:13:13;9.40;99.90
42615;DHT22;28754;47.700;7.924;2023-05-15T03:15:59;9.40;99.90
42615;DHT22;28754;47.700;7.924;2023-05-15T03:18:46;9.30;99.90
42615;DHT22;28754;47.700;7.924;2023-05-15T03:21:33;9.40;99.90
42615;DHT22;28754;47.700;7.924;2023-05-15T03:24:20;9.40;99.90
42615;DHT22;28754;47.700;7.924;2023-05-15T03:27:07;9.40;99.90
42615;DHT22;28754;47.700;7.924;2023-05-15T03:29:53;9.30;99.90
42615;DHT22;28754;47.700;7.924;2023-05-15T03:32:40;9.20;99.90
42615;DHT22;28754;47.700;7.924;2023-05-15T03:35:27;9.20;99.90
42615;DHT22;28754;47.700;7.924;2023-05-15T03:38:13;9.00;99.90
42615;DHT22;28754;47.700;7.924;2023-05-15T03:41:00;8.90;99.90
42615;DHT22;28754;47.700;7.924;2023-05-15T03:43:47;8.80;99.90
42615;DHT22;28754;47.700;7.924;2023-05-15T03:46:38;8.80;99.90
42615;DHT22;28754;47.700;7.924;2023-05-15T03:49:24;8.80;99.90
42615;DHT22;28754;47.700;7.924;2023-05-15T03:52:12;8.70;99.90
42615;DHT22;28754;47.700;7.924;2023-05-15T03:54:59;8.60;99.90
42615;DHT22;28754;47.700;7.924;2023-05-15T03:57:46;8.50;99.90
42615;DHT22;28754;47.700;7.924;2023-05-15T04:00:33;8.50;99.90
42615;DHT22;28754;47.700;7.924;2023-05-15T04:03:20;8.50;99.90
42615;DHT22;28754;47.700;7.924;2023-05-15T04:06:06;8.50;99.90
42615;DHT22;28754;47.700;7.924;2023-05-15T04:08:53;8.50;99.90
42615;DHT22;28754;47.700;7.924;2023-05-15T04:11:40;8.40;99.90
42615;DHT22;28754;47.700;7.924;2023-05-15T04:14:27;8.40;99.90
42615;DHT22;28754;47.700;7.924;2023-05-15T04:17:14;8.40;99.90
42615;DHT22;28754;47.700;7.924;2023-05-15T04:20:00;8.40;99.90
42615;DHT22;28754;47.700;7.924;2023-05-15T04:22:48;8.40;99.90
42615;DHT22;28754;47.700;7.924;2023-05-15T04:25:35;8.40;99.90
42615;DHT22;28754;47.700;7.924;2023-05-15T04:28:21;8.40;99.90
42615;DHT22;28754;47.700;7.924;2023-05-15T04:31:08;8.50;99.90
42615;DHT22;28754;47.700;7.924;2023-05-15T04:33:55;8.50;99.90
42615;DHT22;28754;47.700;7.924;2023-05-15T04:36:42;8.60;99.90
42615;DHT22;28754;47.700;7.924;2023-05-15T04:39:29;8.60;99.90
42615;DHT22;28754;47.700;7.924;2023-05-15T04:42:16;8.60;99.90
42615;DHT22;28754;47.700;7.924;2023-05-15T04:45:03;8.70;99.90
42615;DHT22;28754;47.700;7.924;2023-05-15T04:47:50;8.80;99.90
42615;DHT22;28754;47.700;7.924;2023-05-15T04:50:37;8.90;99.90
42615;DHT22;28754;47.700;7.924;2023-05-15T04:53:24;8.90;99.90
42615;DHT22;28754;47.700;7.924;2023-05-15T04:56:10;8.90;99.90
42615;DHT22;28754;47.700;7.924;2023-05-15T04:58:57;9.10;99.90
42615;DHT22;28754;47.700;7.924;2023-05-15T05:01:44;9.30;99.90
42615;DHT22;28754;47.700;7.924;2023-05-15T05:04:30;9.30;99.90
42615;DHT22;28754;47.700;7.924;2023-05-15T05:07:17;9.50;99.90
42615;DHT22;28754;47.700;7.924;2023-05-15T05:10:05;9.40;99.90
42615;DHT22;28754;47.700;7.924;2023-05-15T05:12:52;9.40;99.90
42615;DHT22;28754;47.700;7.924;2023-05-15T05:15:39;9.60;99.90
42615;DHT22;28754;47.700;7.924;2023-05-15T05:18:25;9.80;99.90
42615;DHT22;28754;47.700;7.924;2023-05-15T05:21:12;9.90;99.90
42615;DHT22;28754;47.700;7.924;2023-05-15T05:23:59;9.80;99.90
42615;DHT22;28754;47.700;7.924;2023-05-15T05:26:46;9.90;99.90
42615;DHT22;28754;47.700;7.924;2023-05-15T05:29:33;9.80;99.90
42615;DHT22;28754;47.700;7.924;2023-05-15T05:32:20;9.80;99.90
42615;DHT22;28754;47.700;7.924;2023-05-15T05:35:07;10.00;99.90
42615;DHT22;28754;47.700;7.924;2023-05-15T05:37:54;10.20;99.90
42615;DHT22;28754;47.700;7.924;2023-05-15T05:40:41;10.00;99.90
42615;DHT22;28754;47.700;7.924;2023-05-15T05:43:28;10.00;99.90
42615;DHT22;28754;47.700;7.924;2023-05-15T05:46:16;10.00;99.90
42615;DHT22;28754;47.700;7.924;2023-05-15T05:49:03;10.00;99.90
42615;DHT22;28754;47.700;7.924;2023-05-15T05:51:50;10.10;99.90
42615;DHT22;28754;47.700;7.924;2023-05-15T05:54:36;10.00;99.90
42615;DHT22;28754;47.700;7.924;2023-05-15T05:57:23;10.00;99.90
42615;DHT22;28754;47.700;7.924;2023-05-15T06:00:10;9.90;99.90
42615;DHT22;28754;47.700;7.924;2023-05-15T06:02:58;9.90;99.90
42615;DHT22;28754;47.700;7.924;2023-05-15T06:05:45;9.90;99.90
42615;DHT22;28754;47.700;7.924;2023-05-15T06:08:32;10.10;99.90
42615;DHT22;28754;47.700;7.924;2023-05-15T06:11:19;10.20;99.90
42615;DHT22;28754;47.700;7.924;2023-05-15T06:14:06;10.20;99.90
42615;DHT22;28754;47.700;7.924;2023-05-15T06:16:53;10.10;99.90
42615;DHT22;28754;47.700;7.924;2023-05-15T06:19:40;10.20;99.90
42615;DHT22;28754;47.700;7.924;2023-05-15T06:22:26;10.30;99.90
42615;DHT22;28754;47.700;7.924;2023-05-15T06:25:14;10.20;99.90
42615;DHT22;28754;47.700;7.924;2023-05-15T06:28:01;10.30;99.90
42615;DHT22;28754;47.700;7.924;2023-05-15T06:30:48;10.50;99.90
42615;DHT22;28754;47.700;7.924;2023-05-15T06:33:34;10.30;99.90
42615;DHT22;28754;47.700;7.924;2023-05-15T06:36:21;10.50;99.90
42615;DHT22;28754;47.700;7.924;2023-05-15T06:39:08;10.60;99.90
42615;DHT22;28754;47.700;7.924;2023-05-15T06:41:56;10.60;99.90
42615;DHT22;28754;47.700;7.924;2023-05-15T06:44:46;10.50;99.90
42615;DHT22;28754;47.700;7.924;2023-05-15T06:47:34;10.20;99.90
42615;DHT22;28754;47.700;7.924;2023-05-15T06:50:21;10.10;99.90
42615;DHT22;28754;47.700;7.924;2023-05-15T06:53:08;10.10;99.90
42615;DHT22;28754;47.700;7.924;2023-05-15T06:55:55;10.10;99.90
42615;DHT22;28754;47.700;7.924;2023-05-15T06:58:41;10.30;99.90
42615;DHT22;28754;47.700;7.924;2023-05-15T07:01:29;10.40;99.90
42615;DHT22;28754;47.700;7.924;2023-05-15T07:04:16;10.20;99.90
42615;DHT22;28754;47.700;7.924;2023-05-15T07:07:03;10.10;99.90
42615;DHT22;28754;47.700;7.924;2023-05-15T07:09:50;10.40;99.90
42615;DHT22;28754;47.700;7.924;2023-05-15T07:12:37;10.50;99.90
42615;DHT22;28754;47.700;7.924;2023-05-15T07:15:23;10.50;99.90
42615;DHT22;28754;47.700;7.924;2023-05-15T07:18:10;10.70;99.90
42615;DHT22;28754;47.700;7.924;2023-05-15T07:20:57;10.80;99.90
42615;DHT22;28754;47.700;7.924;2023-05-15T07:23:47;11.00;99.90
42615;DHT22;28754;47.700;7.924;2023-05-15T07:26:34;11.20;99.90
42615;DHT22;28754;47.700;7.924;2023-05-15T07:29:20;11.30;99.90
42615;DHT22;28754;47.700;7.924;2023-05-15T07:32:07;11.60;99.90
42615;DHT22;28754;47.700;7.924;2023-05-15T07:34:54;11.60;99.90
42615;DHT22;28754;47.700;7.924;2023-05-15T07:37:40;11.70;99.90
42615;DHT22;28754;47.700;7.924;2023-05-15T07:40:27;11.70;99.90
42615;DHT22;28754;47.700;7.924;2023-05-15T07:43:14;11.50;99.90
42615;DHT22;28754;47.700;7.924;2023-05-15T07:46:01;11.40;99.90
42615;DHT22;28754;47.700;7.924;2023-05-15T07:48:47;11.20;99.90
42615;DHT22;28754;47.700;7.924;2023-05-15T07:51:34;11.50;99.90
42615;DHT22;28754;47.700;7.924;2023-05-15T07:54:21;11.60;99.90
42615;DHT22;28754;47.700;7.924;2023-05-15T07:57:08;11.70;99.90
42615;DHT22;28754;47.700;7.924;2023-05-15T07:59:54;11.60;99.90
42615;DHT22;28754;47.700;7.924;2023-05-15T08:02:41;11.40;99.90
42615;DHT22;28754;47.700;7.924;2023-05-15T08:05:31;11.60;99.90
42615;DHT22;28754;47.700;7.924;2023-05-15T08:08:17;12.10;99.90
42615;DHT22;28754;47.700;7.924;2023-05-15T08:11:04;12.40;99.90
42615;DHT22;28754;47.700;7.924;2023-05-15T08:13:51;12.60;99.90
42615;DHT22;28754;47.700;7.924;2023-05-15T08:16:37;13.20;99.90
42615;DHT22;28754;47.700;7.924;2023-05-15T08:19:24;13.30;99.90
42615;DHT22;28754;47.700;7.924;2023-05-15T08:22:11;13.00;99.90
42615;DHT22;28754;47.700;7.924;2023-05-15T08:24:58;12.50;99.90
42615;DHT22;28754;47.700;7.924;2023-05-15T08:27:45;12.20;99.90
42615;DHT22;28754;47.700;7.924;2023-05-15T08:30:32;11.80;99.90
42615;DHT22;28754;47.700;7.924;2023-05-15T08:33:19;11.60;99.90
42615;DHT22;28754;47.700;7.924;2023-05-15T08:36:06;11.50;99.90
42615;DHT22;28754;47.700;7.924;2023-05-15T08:38:53;11.60;99.90
42615;DHT22;28754;47.700;7.924;2023-05-15T08:44:32;11.30;99.90
42615;DHT22;28754;47.700;7.924;2023-05-15T08:47:19;11.30;99.90
42615;DHT22;28754;47.700;7.924;2023-05-15T08:50:08;11.40;99.90
42615;DHT22;28754;47.700;7.924;2023-05-15T08:53:00;11.40;99.90
42615;DHT22;28754;47.700;7.924;2023-05-15T08:55:50;11.50;99.90
42615;DHT22;28754;47.700;7.924;2023-05-15T08:58:37;11.70;99.90
42615;DHT22;28754;47.700;7.924;2023-05-15T09:01:24;11.50;99.90
42615;DHT22;28754;47.700;7.924;2023-05-15T09:04:13;11.40;99.90
42615;DHT22;28754;47.700;7.924;2023-05-15T09:07:00;11.90;99.90
42615;DHT22;28754;47.700;7.924;2023-05-15T09:09:49;12.50;99.90
42615;DHT22;28754;47.700;7.924;2023-05-15T09:12:41;12.90;99.90
42615;DHT22;28754;47.700;7.924;2023-05-15T09:15:29;12.60;99.90
42615;DHT22;28754;47.700;7.924;2023-05-15T09:18:17;12.90;99.90
42615;DHT22;28754;47.700;7.924;2023-05-15T09:21:26;13.30;99.90
42615;DHT22;28754;47.700;7.924;2023-05-15T09:24:24;13.30;99.90
42615;DHT22;28754;47.700;7.924;2023-05-15T09:27:13;13.40;99.90
42615;DHT22;28754;47.700;7.924;2023-05-15T09:30:10;12.70;99.90
42615;DHT22;28754;47.700;7.924;2023-05-15T09:33:01;12.90;99.90
42615;DHT22;28754;47.700;7.924;2023-05-15T09:35:51;13.00;99.90
42615;DHT22;28754;47.700;7.924;2023-05-15T09:38:42;12.90;99.90
42615;DHT22;28754;47.700;7.924;2023-05-15T09:41:32;12.60;99.90
42615;DHT22;28754;47.700;7.924;2023-05-15T09:44:26;12.30;99.90
42615;DHT22;28754;47.700;7.924;2023-05-15T09:47:13;12.50;99.90
42615;DHT22;28754;47.700;7.924;2023-05-15T09:50:02;13.00;99.90
42615;DHT22;28754;47.700;7.924;2023-05-15T09:52:49;13.30;99.90
42615;DHT22;28754;47.700;7.924;2023-05-15T09:55:37;13.00;99.90
42615;DHT22;28754;47.700;7.924;2023-05-15T09:58:23;12.70;99.90
42615;DHT22;28754;47.700;7.924;2023-05-15T10:01:10;12.80;99.90
42615;DHT22;28754;47.700;7.924;2023-05-15T10:03:58;13.00;99.90
42615;DHT22;28754;47.700;7.924;2023-05-15T10:06:48;12.30;99.90
42615;DHT22;28754;47.700;7.924;2023-05-15T10:09:35;12.80;99.90
42615;DHT22;28754;47.700;7.924;2023-05-15T10:12:22;14.40;99.90
42615;DHT22;28754;47.700;7.924;2023-05-15T10:15:10;14.20;99.90
42615;DHT22;28754;47.700;7.924;2023-05-15T10:17:58;14.20;99.90
42615;DHT22;28754;47.700;7.924;2023-05-15T10:20:45;14.20;99.90
42615;DHT22;28754;47.700;7.924;2023-05-15T10:23:35;14.40;99.90
42615;DHT22;28754;47.700;7.924;2023-05-15T10:26:28;14.40;99.90
42615;DHT22;28754;47.700;7.924;2023-05-15T10:29:21;13.70;99.90
42615;DHT22;28754;47.700;7.924;2023-05-15T10:32:12;13.40;99.90
42615;DHT22;28754;47.700;7.924;2023-05-15T10:35:01;13.90;99.90
42615;DHT22;28754;47.700;7.924;2023-05-15T10:37:49;14.20;99.90
42615;DHT22;28754;47.700;7.924;2023-05-15T10:40:36;14.30;99.90
42615;DHT22;28754;47.700;7.924;2023-05-15T10:43:25;14.00;99.90
42615;DHT22;28754;47.700;7.924;2023-05-15T10:46:15;15.00;99.90
42615;DHT22;28754;47.700;7.924;2023-05-15T10:49:02;15.30;99.90
42615;DHT22;28754;47.700;7.924;2023-05-15T10:51:51;15.80;99.90
42615;DHT22;28754;47.700;7.924;2023-05-15T10:54:38;15.30;99.90
42615;DHT22;28754;47.700;7.924;2023-05-15T10:57:28;14.70;99.90
42615;DHT22;28754;47.700;7.924;2023-05-15T11:03:07;15.30;99.90
42615;DHT22;28754;47.700;7.924;2023-05-15T11:06:09;15.10;99.90
42615;DHT22;28754;47.700;7.924;2023-05-15T11:12:12;15.20;99.90
42615;DHT22;28754;47.700;7.924;2023-05-15T11:18:01;15.40;99.90
42615;DHT22;28754;47.700;7.924;2023-05-15T11:23:38;15.20;99.90
42615;DHT22;28754;47.700;7.924;2023-05-15T11:26:32;15.40;99.90
42615;DHT22;28754;47.700;7.924;2023-05-15T11:29:19;15.70;99.90
42615;DHT22;28754;47.700;7.924;2023-05-15T11:35:43;15.40;99.90
42615;DHT22;28754;47.700;7.924;2023-05-15T11:38:37;15.10;99.90
42615;DHT22;28754;47.700;7.924;2023-05-15T11:41:30;15.10;99.90
42615;DHT22;28754;47.700;7.924;2023-05-15T11:44:21;15.90;99.90
42615;DHT22;28754;47.700;7.924;2023-05-15T11:47:09;15.90;99.90
42615;DHT22;28754;47.700;7.924;2023-05-15T11:49:56;16.20;99.90
42615;DHT22;28754;47.700;7.924;2023-05-15T11:52:43;16.10;99.90
42615;DHT22;28754;47.700;7.924;2023-05-15T11:55:34;16.40;99.90
42615;DHT22;28754;47.700;7.924;2023-05-15T11:58:23;16.20;99.90
42615;DHT22;28754;47.700;7.924;2023-05-15T12:01:11;16.80;99.90
42615;DHT22;28754;47.700;7.924;2023-05-15T12:03:57;17.00;99.90
42615;DHT22;28754;47.700;7.924;2023-05-15T12:06:44;17.10;99.90
42615;DHT22;28754;47.700;7.924;2023-05-15T12:09:35;16.90;99.90
42615;DHT22;28754;47.700;7.924;2023-05-15T12:12:24;16.80;99.90
42615;DHT22;28754;47.700;7.924;2023-05-15T12:15:15;16.50;99.90
42615;DHT22;28754;47.700;7.924;2023-05-15T12:18:06;16.40;99.90
42615;DHT22;28754;47.700;7.924;2023-05-15T12:20:54;16.10;99.90
42615;DHT22;28754;47.700;7.924;2023-05-15T12:23:41;16.00;99.90
42615;DHT22;28754;47.700;7.924;2023-05-15T12:26:35;15.60;99.90
42615;DHT22;28754;47.700;7.924;2023-05-15T12:29:22;15.40;99.90
42615;DHT22;28754;47.700;7.924;2023-05-15T12:32:09;15.70;99.90
42615;DHT22;28754;47.700;7.924;2023-05-15T12:34:56;16.90;99.90
42615;DHT22;28754;47.700;7.924;2023-05-15T12:37:44;17.50;99.90
42615;DHT22;28754;47.700;7.924;2023-05-15T12:40:34;17.60;99.90
42615;DHT22;28754;47.700;7.924;2023-05-15T12:43:25;17.30;99.90
42615;DHT22;28754;47.700;7.924;2023-05-15T12:46:12;16.80;99.90
42615;DHT22;28754;47.700;7.924;2023-05-15T12:49:00;16.10;99.90
42615;DHT22;28754;47.700;7.924;2023-05-15T12:51:47;16.10;99.90
42615;DHT22;28754;47.700;7.924;2023-05-15T12:54:42;16.50;99.90
42615;DHT22;28754;47.700;7.924;2023-05-15T12:57:29;16.90;99.90
42615;DHT22;28754;47.700;7.924;2023-05-15T13:00:17;16.70;99.90
42615;DHT22;28754;47.700;7.924;2023-05-15T13:03:10;17.20;99.90
42615;DHT22;28754;47.700;7.924;2023-05-15T13:05:58;17.30;99.90
42615;DHT22;28754;47.700;7.924;2023-05-15T13:08:47;17.80;99.90
42615;DHT22;28754;47.700;7.924;2023-05-15T13:11:33;17.10;99.90
42615;DHT22;28754;47.700;7.924;2023-05-15T13:14:20;16.40;99.90
42615;DHT22;28754;47.700;7.924;2023-05-15T13:17:08;16.00;99.90
42615;DHT22;28754;47.700;7.924;2023-05-15T13:19:58;15.80;99.90
42615;DHT22;28754;47.700;7.924;2023-05-15T13:22:44;15.70;99.90
42615;DHT22;28754;47.700;7.924;2023-05-15T13:25:31;15.70;99.90
42615;DHT22;28754;47.700;7.924;2023-05-15T13:28:18;15.60;99.90
42615;DHT22;28754;47.700;7.924;2023-05-15T13:31:05;15.40;99.90
42615;DHT22;28754;47.700;7.924;2023-05-15T13:33:51;15.20;99.90
42615;DHT22;28754;47.700;7.924;2023-05-15T13:36:38;15.20;99.90
42615;DHT22;28754;47.700;7.924;2023-05-15T13:39:25;15.10;99.90
42615;DHT22;28754;47.700;7.924;2023-05-15T13:42:11;15.00;99.90
42615;DHT22;28754;47.700;7.924;2023-05-15T13:44:58;14.90;99.90
42615;DHT22;28754;47.700;7.924;2023-05-15T13:47:44;15.00;99.90
42615;DHT22;28754;47.700;7.924;2023-05-15T13:50:31;15.00;99.90
42615;DHT22;28754;47.700;7.924;2023-05-15T13:53:18;15.10;99.90
42615;DHT22;28754;47.700;7.924;2023-05-15T13:56:05;15.30;99.90
42615;DHT22;28754;47.700;7.924;2023-05-15T13:58:51;15.40;99.90
42615;DHT22;28754;47.700;7.924;2023-05-15T14:01:38;15.00;99.90
42615;DHT22;28754;47.700;7.924;2023-05-15T14:04:25;15.20;99.90
42615;DHT22;28754;47.700;7.924;2023-05-15T14:07:11;15.50;99.90
42615;DHT22;28754;47.700;7.924;2023-05-15T14:09:58;15.60;99.90
42615;DHT22;28754;47.700;7.924;2023-05-15T14:12:45;15.60;99.90
42615;DHT22;28754;47.700;7.924;2023-05-15T14:15:32;15.00;99.90
42615;DHT22;28754;47.700;7.924;2023-05-15T14:18:18;14.70;99.90
42615;DHT22;28754;47.700;7.924;2023-05-15T14:21:05;14.90;99.90
42615;DHT22;28754;47.700;7.924;2023-05-15T14:23:52;15.00;99.90
42615;DHT22;28754;47.700;7.924;2023-05-15T14:26:38;15.00;99.90
42615;DHT22;28754;47.700;7.924;2023-05-15T14:29:25;15.10;99.90
42615;DHT22;28754;47.700;7.924;2023-05-15T14:32:12;14.80;99.90
42615;DHT22;28754;47.700;7.924;2023-05-15T14:34:59;14.60;99.90
42615;DHT22;28754;47.700;7.924;2023-05-15T14:37:45;14.40;99.90
42615;DHT22;28754;47.700;7.924;2023-05-15T14:40:32;14.30;99.90
42615;DHT22;28754;47.700;7.924;2023-05-15T14:43:19;14.40;99.90
42615;DHT22;28754;47.700;7.924;2023-05-15T14:46:06;14.50;99.90
42615;DHT22;28754;47.700;7.924;2023-05-15T14:48:52;14.60;99.90
42615;DHT22;28754;47.700;7.924;2023-05-15T14:51:39;14.30;99.90
42615;DHT22;28754;47.700;7.924;2023-05-15T14:54:26;14.30;99.90
42615;DHT22;28754;47.700;7.924;2023-05-15T14:57:12;14.30;99.90
42615;DHT22;28754;47.700;7.924;2023-05-15T14:59:59;14.30;99.90
42615;DHT22;28754;47.700;7.924;2023-05-15T15:02:46;14.30;99.90
42615;DHT22;28754;47.700;7.924;2023-05-15T15:05:32;14.20;99.90
42615;DHT22;28754;47.700;7.924;2023-05-15T15:08:19;14.30;99.90
42615;DHT22;28754;47.700;7.924;2023-05-15T15:11:06;14.20;99.90
42615;DHT22;28754;47.700;7.924;2023-05-15T15:13:53;14.30;99.90
42615;DHT22;28754;47.700;7.924;2023-05-15T15:16:39;14.50;99.90
42615;DHT22;28754;47.700;7.924;2023-05-15T15:19:26;14.60;99.90
42615;DHT22;28754;47.700;7.924;2023-05-15T15:22:13;14.60;99.90
42615;DHT22;28754;47.700;7.924;2023-05-15T15:25:00;14.80;99.90
42615;DHT22;28754;47.700;7.924;2023-05-15T15:27:47;14.70;99.90
42615;DHT22;28754;47.700;7.924;2023-05-15T15:30:34;14.70;99.90
42615;DHT22;28754;47.700;7.924;2023-05-15T15:33:21;14.70;99.90
42615;DHT22;28754;47.700;7.924;2023-05-15T15:36:07;14.60;99.90
42615;DHT22;28754;47.700;7.924;2023-05-15T15:38:54;14.40;99.90
42615;DHT22;28754;47.700;7.924;2023-05-15T15:41:41;14.30;99.90
42615;DHT22;28754;47.700;7.924;2023-05-15T15:44:27;14.40;99.90
42615;DHT22;28754;47.700;7.924;2023-05-15T15:47:17;14.40;99.90
42615;DHT22;28754;47.700;7.924;2023-05-15T15:50:07;14.20;99.90
42615;DHT22;28754;47.700;7.924;2023-05-15T15:52:54;14.10;99.90
42615;DHT22;28754;47.700;7.924;2023-05-15T15:55:40;14.10;99.90
42615;DHT22;28754;47.700;7.924;2023-05-15T15:58:28;14.10;99.90
42615;DHT22;28754;47.700;7.924;2023-05-15T16:01:15;14.10;99.90
42615;DHT22;28754;47.700;7.924;2023-05-15T16:04:05;14.10;99.90
42615;DHT22;28754;47.700;7.924;2023-05-15T16:06:52;14.20;99.90
42615;DHT22;28754;47.700;7.924;2023-05-15T16:09:39;14.20;99.90
42615;DHT22;28754;47.700;7.924;2023-05-15T16:12:26;14.10;99.90
42615;DHT22;28754;47.700;7.924;2023-05-15T16:15:13;14.10;99.90
42615;DHT22;28754;47.700;7.924;2023-05-15T16:18:02;14.20;99.90
42615;DHT22;28754;47.700;7.924;2023-05-15T16:20:49;14.50;99.90
42615;DHT22;28754;47.700;7.924;2023-05-15T16:23:36;14.60;99.90
42615;DHT22;28754;47.700;7.924;2023-05-15T16:26:35;14.80;99.90
42615;DHT22;28754;47.700;7.924;2023-05-15T16:29:26;15.00;99.90
42615;DHT22;28754;47.700;7.924;2023-05-15T16:32:14;15.00;99.90
42615;DHT22;28754;47.700;7.924;2023-05-15T16:35:05;14.90;99.90
42615;DHT22;28754;47.700;7.924;2023-05-15T16:37:55;14.80;99.90
42615;DHT22;28754;47.700;7.924;2023-05-15T16:40:45;14.50;99.90
42615;DHT22;28754;47.700;7.924;2023-05-15T16:43:38;14.20;99.90
42615;DHT22;28754;47.700;7.924;2023-05-15T16:46:54;14.00;99.90
42615;DHT22;28754;47.700;7.924;2023-05-15T16:49:52;13.80;99.90
42615;DHT22;28754;47.700;7.924;2023-05-15T16:52:39;13.60;99.90
42615;DHT22;28754;47.700;7.924;2023-05-15T16:55:32;13.40;99.90
42615;DHT22;28754;47.700;7.924;2023-05-15T16:58:19;13.40;99.90
42615;DHT22;28754;47.700;7.924;2023-05-15T17:01:08;13.40;99.90
42615;DHT22;28754;47.700;7.924;2023-05-15T17:03:58;13.40;99.90
42615;DHT22;28754;47.700;7.924;2023-05-15T17:06:53;13.30;99.90
42615;DHT22;28754;47.700;7.924;2023-05-15T17:10:09;13.30;99.90
42615;DHT22;28754;47.700;7.924;2023-05-15T17:13:14;13.10;99.90
42615;DHT22;28754;47.700;7.924;2023-05-15T17:16:22;13.00;99.90
42615;DHT22;28754;47.700;7.924;2023-05-15T17:19:14;13.10;99.90
42615;DHT22;28754;47.700;7.924;2023-05-15T17:22:07;13.10;99.90
42615;DHT22;28754;47.700;7.924;2023-05-15T17:24:54;13.10;99.90
42615;DHT22;28754;47.700;7.924;2023-05-15T17:27:44;12.90;99.90
42615;DHT22;28754;47.700;7.924;2023-05-15T17:30:39;12.90;99.90
42615;DHT22;28754;47.700;7.924;2023-05-15T17:33:28;12.80;99.90
42615;DHT22;28754;47.700;7.924;2023-05-15T17:36:20;12.80;99.90
42615;DHT22;28754;47.700;7.924;2023-05-15T17:39:10;12.70;99.90
42615;DHT22;28754;47.700;7.924;2023-05-15T17:42:26;12.60;99.90
42615;DHT22;28754;47.700;7.924;2023-05-15T17:45:20;12.50;99.90
42615;DHT22;28754;47.700;7.924;2023-05-15T17:48:27;12.60;99.90
42615;DHT22;28754;47.700;7.924;2023-05-15T17:51:32;12.70;99.90
42615;DHT22;28754;47.700;7.924;2023-05-15T17:54:34;12.70;99.90
42615;DHT22;28754;47.700;7.924;2023-05-15T17:57:30;12.70;99.90
42615;DHT22;28754;47.700;7.924;2023-05-15T18:00:24;12.50;99.90
42615;DHT22;28754;47.700;7.924;2023-05-15T18:03:12;12.50;99.90
42615;DHT22;28754;47.700;7.924;2023-05-15T18:06:02;12.60;99.90
42615;DHT22;28754;47.700;7.924;2023-05-15T18:08:57;12.50;99.90
42615;DHT22;28754;47.700;7.924;2023-05-15T18:11:58;12.40;99.90
42615;DHT22;28754;47.700;7.924;2023-05-15T18:14:45;12.50;99.90
42615;DHT22;28754;47.700;7.924;2023-05-15T18:17:32;12.50;99.90
42615;DHT22;28754;47.700;7.924;2023-05-15T18:20:19;12.50;99.90